Sandra Hugh — WDD9019 — position and weather

sailwx.info

Track history (hours):
 
Tides and Currents Weather Stations Pressure Air Temp Water Temp Dewpoint Dewpoint Depression Visibility Wind Speed Wind Dir Waves Ship Positions

Sandra Hugh

Owner: AMNAV Maritime Corporation, Oakland, CA. More information available from US FCC via Universal Licensing System and Coast Guard Vessel Documentation Center.

Last reported at 2017-Oct-18 18:00 UTC. Time now 2017-Oct-18 18:11 UTC.
Position N 37°49' W 122°19'.

Length 24 m; draft 4.9 m.

Type: Tug. MMSI: 367305920.

Date/timePositionNaut miles runAvg speedWind from/ knotsBaromVisibWave heightAir tempDewpointWater temp
2017-Oct-18 18:00N 37°49' W 122°19'1 2.9
2017-Oct-18 17:31N 37°48' W 122°19'1 2.5
2017-Oct-18 17:00N 37°48' W 122°17'1 2.2
2017-Oct-18 16:31N 37°48' W 122°19'1 1.2
2017-Oct-18 16:00N 37°48' W 122°19'1 1.9
2017-Oct-18 15:30N 37°48' W 122°18'0 0.0
2017-Oct-18 15:01N 37°48' W 122°18'0 0.0
2017-Oct-18 14:00N 37°48' W 122°18'0 0.0
2017-Oct-18 13:30N 37°48' W 122°18'0 0.1
2017-Oct-18 13:00N 37°48' W 122°18'0 0.2
2017-Oct-18 12:31N 37°48' W 122°18'1 2.0
2017-Oct-18 12:01N 37°48' W 122°17'2 3.7
2017-Oct-18 11:30N 37°48' W 122°20'3 5.5
2017-Oct-18 11:01N 37°48' W 122°23'2 4.1
2017-Oct-18 10:31N 37°48' W 122°21'0 0.0
2017-Oct-18 10:01N 37°48' W 122°21'0 0.0
2017-Oct-18 09:31N 37°48' W 122°21'0 0.0
2017-Oct-18 09:00N 37°48' W 122°21'1 2.8
2017-Oct-18 08:30N 37°50' W 122°21'5 9.6
2017-Oct-18 08:00N 37°53' W 122°25'2 4.1
2017-Oct-18 07:30N 37°54' W 122°22'1 1.7
2017-Oct-18 07:00N 37°55' W 122°22'0 0.9
2017-Oct-18 06:30N 37°55' W 122°22'0 0.0
2017-Oct-18 06:00N 37°55' W 122°22'0 0.0
2017-Oct-18 05:30N 37°55' W 122°22'0 0.0
2017-Oct-18 05:00N 37°55' W 122°22'1 2.1
2017-Oct-18 04:30N 37°54' W 122°22'0 0.1
2017-Oct-18 04:01N 37°54' W 122°22'0 0.6
2017-Oct-18 03:31N 37°54' W 122°22'0 0.8
2017-Oct-18 03:00N 37°54' W 122°22'3 5.1
2017-Oct-18 02:30N 37°55' W 122°25'1 2.3
2017-Oct-18 02:00N 37°54' W 122°24'2 3.5
2017-Oct-18 01:30N 37°54' W 122°22'3 5.1
2017-Oct-18 01:00N 37°54' W 122°25'612.0
2017-Oct-18 00:30N 37°48' W 122°21'1 2.3
2017-Oct-18 00:00N 37°49' W 122°19'0 0.0
2017-Oct-17 23:30N 37°49' W 122°19'0 0.0
2017-Oct-17 23:00N 37°49' W 122°19'0 0.0
2017-Oct-17 22:30N 37°49' W 122°19'0 0.0
2017-Oct-17 22:00N 37°49' W 122°19'1 1.6
2017-Oct-17 21:30N 37°49' W 122°20'4 7.9
2017-Oct-17 21:00N 37°52' W 122°24'510.6
2017-Oct-17 20:30N 37°57' W 122°26'5 9.8
2017-Oct-17 20:00N 38°01' W 122°23'4 9.1
2017-Oct-17 19:30N 38°03' W 122°18'3 5.9
2017-Oct-17 19:00N 38°04' W 122°14'2 3.3
2017-Oct-17 18:23N 38°06' W 122°16'0 0.1
2017-Oct-17 17:59N 38°06' W 122°16'2 4.5
2017-Oct-17 17:30N 38°04' W 122°15'1 2.3
2017-Oct-17 17:00N 38°04' W 122°13'3 6.4
2017-Oct-17 16:30N 38°03' W 122°18'3 6.7
2017-Oct-17 16:00N 38°02' W 122°21'3 7.0
2017-Oct-17 15:30N 38°00' W 122°25'4 7.6
2017-Oct-17 15:00N 37°56' W 122°26'4 8.3
2017-Oct-17 14:30N 37°52' W 122°25'3 6.1
2017-Oct-17 14:00N 37°49' W 122°25'1 1.3
2017-Oct-17 13:30N 37°49' W 122°25'0 1.0
2017-Oct-17 13:00N 37°49' W 122°24'3 6.2
2017-Oct-17 12:30N 37°48' W 122°21'0 0.0
2017-Oct-17 12:01N 37°48' W 122°21'0 0.0
2017-Oct-17 11:30N 37°48' W 122°21'0 0.0
2017-Oct-17 11:00N 37°48' W 122°21'0 0.0
2017-Oct-17 10:30N 37°48' W 122°21'0 0.0
2017-Oct-17 10:00N 37°48' W 122°21'0 0.0
2017-Oct-17 09:30N 37°48' W 122°21'1 2.9
2017-Oct-17 09:00N 37°48' W 122°19'1 1.6
2017-Oct-17 08:30N 37°48' W 122°18'0 0.5
2017-Oct-17 08:00N 37°48' W 122°18'1 2.7
2017-Oct-17 07:31N 37°48' W 122°20'2 3.4
2017-Oct-17 07:00N 37°49' W 122°19'0 0.0
2017-Oct-17 06:30N 37°49' W 122°19'0 0.0
2017-Oct-17 06:00N 37°49' W 122°19'0 0.0
2017-Oct-17 05:30N 37°49' W 122°19'0 0.0
2017-Oct-17 05:00N 37°49' W 122°19'0 0.0
2017-Oct-17 04:30N 37°49' W 122°19'0 0.0
2017-Oct-17 04:00N 37°49' W 122°19'0 0.0
2017-Oct-17 03:30N 37°49' W 122°19'0 0.0
2017-Oct-17 03:00N 37°49' W 122°19'0 0.0
2017-Oct-17 02:30N 37°49' W 122°19'0 0.0
2017-Oct-17 02:00N 37°49' W 122°19'0 0.0
2017-Oct-17 01:30N 37°49' W 122°19'0 0.0
2017-Oct-17 01:00N 37°49' W 122°19'0 0.0
2017-Oct-17 00:30N 37°49' W 122°19'0 0.0
2017-Oct-17 00:00N 37°49' W 122°19'0 0.0
2017-Oct-16 23:30N 37°49' W 122°19'0 0.0
2017-Oct-16 23:00N 37°49' W 122°19'0 0.0
2017-Oct-16 22:30N 37°49' W 122°19'0 0.0
2017-Oct-16 22:00N 37°49' W 122°19'0 0.0
2017-Oct-16 21:30N 37°49' W 122°19'0 0.0
2017-Oct-16 21:00N 37°49' W 122°19'0 0.0
2017-Oct-16 20:30N 37°49' W 122°19'0 0.0
2017-Oct-16 20:00N 37°49' W 122°19'0 0.0
2017-Oct-16 19:30N 37°49' W 122°19'0 0.0
2017-Oct-16 19:00N 37°49' W 122°19'0 0.0
2017-Oct-16 18:30N 37°49' W 122°19'0 0.0
2017-Oct-16 18:00N 37°49' W 122°19'0 0.0
2017-Oct-16 17:30N 37°49' W 122°19'0 0.0
2017-Oct-16 17:00N 37°49' W 122°19'0 0.0
2017-Oct-16 16:30N 37°49' W 122°19'0 0.0
2017-Oct-16 16:00N 37°49' W 122°19'0 0.0
2017-Oct-16 15:30N 37°49' W 122°19'0 0.0
2017-Oct-16 15:00N 37°49' W 122°19'0 0.0
2017-Oct-16 14:00N 37°49' W 122°19'0 0.0
2017-Oct-16 13:30N 37°49' W 122°19'2 3.4
2017-Oct-16 13:00N 37°48' W 122°20'1 1.6
2017-Oct-16 12:30N 37°48' W 122°19'0 0.1
2017-Oct-16 12:00N 37°48' W 122°19'0 0.0
2017-Oct-16 11:30N 37°48' W 122°19'0 0.0
2017-Oct-16 11:00N 37°48' W 122°19'0 0.0
2017-Oct-16 10:30N 37°48' W 122°19'0 0.0
2017-Oct-16 10:00N 37°48' W 122°19'1 2.7
2017-Oct-16 09:30N 37°48' W 122°21'3 5.3
2017-Oct-16 09:00N 37°51' W 122°23'510.7
2017-Oct-16 08:30N 37°55' W 122°25'611.0
2017-Oct-16 08:00N 38°01' W 122°24'510.2
2017-Oct-16 07:30N 38°03' W 122°18'5 9.4
2017-Oct-16 06:59N 38°03' W 122°12'3 3.2
2017-Oct-16 05:59N 38°02' W 122°08'0 0.8
2017-Oct-16 05:30N 38°02' W 122°08'0 0.0
2017-Oct-16 05:00N 38°02' W 122°08'0 0.0
2017-Oct-16 04:06N 38°02' W 122°08'0 0.0
2017-Oct-16 03:37N 38°02' W 122°08'0 0.0
2017-Oct-16 03:15N 38°02' W 122°08'0 0.0
2017-Oct-16 03:00N 38°02' W 122°08'0 0.0
2017-Oct-16 02:29N 38°02' W 122°08'0 0.0
2017-Oct-16 02:00N 38°02' W 122°08'0 0.0
2017-Oct-16 01:29N 38°02' W 122°08'0 0.0
2017-Oct-15 17:08N 38°02' W 122°08'0 0.0
2017-Oct-15 16:54N 38°02' W 122°08'0 0.0
2017-Oct-15 16:29N 38°02' W 122°08'0 0.0
2017-Oct-15 16:00N 38°02' W 122°08'0 0.0
2017-Oct-15 15:30N 38°02' W 122°08'0 0.0
2017-Oct-15 15:00N 38°02' W 122°08'0 0.0
2017-Oct-15 13:59N 38°02' W 122°08'0 0.0
2017-Oct-15 13:29N 38°02' W 122°08'0 0.0
2017-Oct-15 12:57N 38°02' W 122°08'0 0.0
2017-Oct-15 12:30N 38°02' W 122°08'0 0.0
2017-Oct-15 11:59N 38°02' W 122°08'0 0.0
2017-Oct-15 11:28N 38°02' W 122°08'0 0.0
2017-Oct-15 10:59N 38°02' W 122°08'0 0.0
2017-Oct-15 10:30N 38°02' W 122°08'0 0.0
2017-Oct-15 10:00N 38°02' W 122°08'0 0.0
2017-Oct-15 09:30N 38°02' W 122°08'0 0.0
2017-Oct-15 01:43N 38°02' W 122°08'0 2.3
2017-Oct-15 01:30N 38°02' W 122°09'1 0.1
2017-Oct-14 15:22N 38°02' W 122°07'1 0.4
2017-Oct-14 14:04N 38°02' W 122°08'0 1.9
2017-Oct-14 14:00N 38°02' W 122°08'1 1.3
2017-Oct-14 13:19N 38°02' W 122°09'1 0.1
2017-Oct-14 05:44N 38°02' W 122°08'2 1.8
2017-Oct-14 04:48N 38°03' W 122°06'1 3.6
2017-Oct-14 04:26N 38°02' W 122°08'0 0.1
2017-Oct-14 02:14N 38°02' W 122°07'0 0.4
2017-Oct-14 02:00N 38°02' W 122°07'0 0.0
2017-Oct-14 01:19N 38°02' W 122°07'0 0.8
2017-Oct-14 01:00N 38°02' W 122°08'2 3.2
2017-Oct-14 00:16N 38°03' W 122°11'2 7.5
2017-Oct-14 00:00N 38°04' W 122°13'4 7.0
2017-Oct-13 23:29N 38°04' W 122°18'3 6.2
2017-Oct-13 22:59N 38°04' W 122°14'6 0.3
2017-Oct-13 01:45N 38°03' W 122°06'2 0.2
2017-Oct-12 14:15N 38°02' W 122°08'2 7.0
2017-Oct-12 13:57N 38°03' W 122°11'4 8.9
2017-Oct-12 13:30N 38°03' W 122°16'0 0.0
2017-Oct-12 12:59N 38°03' W 122°16'0 0.0
2017-Oct-12 12:30N 38°03' W 122°16'0 0.2
2017-Oct-12 12:00N 38°03' W 122°16'1 1.5
2017-Oct-12 11:30N 38°03' W 122°15'0 0.0
2017-Oct-12 11:00N 38°03' W 122°15'0 0.0
2017-Oct-12 10:30N 38°03' W 122°15'0 0.0
2017-Oct-12 10:00N 38°03' W 122°15'0 0.0
2017-Oct-12 09:30N 38°03' W 122°15'0 0.0
2017-Oct-12 09:00N 38°03' W 122°15'0 0.0
2017-Oct-12 08:30N 38°03' W 122°15'0 0.0
2017-Oct-12 08:00N 38°03' W 122°15'0 0.0
2017-Oct-12 07:30N 38°03' W 122°15'0 0.0
2017-Oct-12 07:00N 38°03' W 122°15'0 0.0
2017-Oct-12 06:30N 38°03' W 122°15'0 0.0
2017-Oct-12 06:00N 38°03' W 122°15'0 0.0
2017-Oct-12 05:30N 38°03' W 122°15'0 0.0
2017-Oct-12 05:00N 38°03' W 122°15'5 1.0
2017-Oct-11 23:42N 38°02' W 122°08'2 0.1
2017-Oct-10 23:27N 38°03' W 122°11'4 7.1
2017-Oct-10 22:55N 38°03' W 122°06'0 0.1
2017-Oct-10 21:13N 38°03' W 122°06'2 4.2
2017-Oct-10 20:49N 38°02' W 122°08'2 0.5
2017-Oct-10 16:49N 38°03' W 122°05'10 9.6
2017-Oct-10 15:49N 38°02' W 121°53'16 0.8
2017-Oct-09 20:11N 38°04' W 122°13'2 9.9
2017-Oct-09 19:59N 38°04' W 122°16'1 2.0
2017-Oct-09 19:24N 38°04' W 122°17'7 6.7
2017-Oct-09 18:19N 38°02' W 122°08'3 6.9
2017-Oct-09 17:52N 38°03' W 122°12'2 5.7
2017-Oct-09 17:30N 38°03' W 122°15'0 0.0
2017-Oct-09 16:57N 38°03' W 122°15'0 0.0
2017-Oct-09 16:30N 38°03' W 122°15'0 0.0
2017-Oct-09 16:00N 38°03' W 122°15'0 0.0
2017-Oct-09 15:30N 38°03' W 122°15'0 0.0
2017-Oct-09 15:00N 38°03' W 122°15'0 0.0
2017-Oct-09 14:30N 38°03' W 122°15'0 0.0
2017-Oct-09 14:00N 38°03' W 122°15'0 0.0
2017-Oct-09 13:30N 38°03' W 122°15'0 0.0
2017-Oct-09 13:00N 38°03' W 122°15'0 0.0
2017-Oct-09 12:29N 38°03' W 122°15'0 0.0
2017-Oct-09 11:54N 38°03' W 122°15'0 0.0
2017-Oct-09 11:30N 38°03' W 122°15'0 0.0
2017-Oct-09 11:00N 38°03' W 122°15'0 0.0
2017-Oct-09 10:28N 38°03' W 122°15'0 0.0
2017-Oct-09 10:00N 38°03' W 122°15'0 0.0
2017-Oct-09 09:30N 38°03' W 122°15'0 0.0
2017-Oct-09 09:00N 38°03' W 122°15'0 0.0
2017-Oct-09 08:30N 38°03' W 122°15'0 0.0
2017-Oct-09 08:00N 38°03' W 122°15'0 0.0
2017-Oct-09 07:29N 38°03' W 122°15'0 0.0
2017-Oct-09 07:00N 38°03' W 122°15'0 0.0
2017-Oct-09 05:59N 38°03' W 122°15'0 0.0
2017-Oct-09 05:24N 38°03' W 122°15'0 0.0
2017-Oct-09 04:59N 38°03' W 122°15'0 0.0
2017-Oct-09 04:29N 38°03' W 122°15'0 0.0
2017-Oct-09 04:00N 38°03' W 122°15'0 0.0
2017-Oct-09 03:29N 38°03' W 122°15'0 0.0
2017-Oct-09 02:59N 38°03' W 122°15'0 0.0
2017-Oct-09 02:29N 38°03' W 122°15'0 0.0
2017-Oct-09 02:00N 38°03' W 122°15'1 1.3
2017-Oct-09 01:30N 38°04' W 122°14'0 0.3
2017-Oct-09 01:00N 38°04' W 122°14'3 4.9
2017-Oct-09 00:29N 38°03' W 122°17'4 6.2
2017-Oct-08 23:54N 38°02' W 122°21'4 9.8
2017-Oct-08 23:30N 37°59' W 122°25'5 9.5
2017-Oct-08 23:00N 37°55' W 122°25'510.6
2017-Oct-08 22:30N 37°50' W 122°22'3 5.9
2017-Oct-08 22:00N 37°49' W 122°19'0 0.0
2017-Oct-08 21:30N 37°49' W 122°19'0 0.0
2017-Oct-08 21:00N 37°49' W 122°19'0 0.0
2017-Oct-08 20:30N 37°49' W 122°19'0 0.0
2017-Oct-08 20:00N 37°49' W 122°19'0 0.0
2017-Oct-08 19:30N 37°49' W 122°19'0 0.0
2017-Oct-08 19:00N 37°49' W 122°19'0 0.0
2017-Oct-08 18:30N 37°49' W 122°19'0 0.0
2017-Oct-08 18:00N 37°49' W 122°19'  
Track history (hours):
 
Tides and Currents Weather Stations Pressure Air Temp Water Temp Dewpoint Dewpoint Depression Visibility Wind Speed Wind Dir Waves Ship Positions

Sandra Hugh

Owner: AMNAV Maritime Corporation, Oakland, CA. More information available from US FCC via Universal Licensing System and Coast Guard Vessel Documentation Center.

Last reported at 2017-Oct-18 18:00 UTC. Time now 2017-Oct-18 18:11 UTC.
Position N 37°49' W 122°19'.

Length 24 m; draft 4.9 m.

Type: Tug. MMSI: 367305920.

Date/timePositionNaut miles runAvg speedWind from/ knotsBaromVisibWave heightAir tempDewpointWater temp
2017-Oct-18 18:00N 37°49' W 122°19'1 2.9
2017-Oct-18 17:31N 37°48' W 122°19'1 2.5
2017-Oct-18 17:00N 37°48' W 122°17'1 2.2
2017-Oct-18 16:31N 37°48' W 122°19'1 1.2
2017-Oct-18 16:00N 37°48' W 122°19'1 1.9
2017-Oct-18 15:30N 37°48' W 122°18'0 0.0
2017-Oct-18 15:01N 37°48' W 122°18'0 0.0
2017-Oct-18 14:00N 37°48' W 122°18'0 0.0
2017-Oct-18 13:30N 37°48' W 122°18'0 0.1
2017-Oct-18 13:00N 37°48' W 122°18'0 0.2
2017-Oct-18 12:31N 37°48' W 122°18'1 2.0
2017-Oct-18 12:01N 37°48' W 122°17'2 3.7
2017-Oct-18 11:30N 37°48' W 122°20'3 5.5
2017-Oct-18 11:01N 37°48' W 122°23'2 4.1
2017-Oct-18 10:31N 37°48' W 122°21'0 0.0
2017-Oct-18 10:01N 37°48' W 122°21'0 0.0
2017-Oct-18 09:31N 37°48' W 122°21'0 0.0
2017-Oct-18 09:00N 37°48' W 122°21'1 2.8
2017-Oct-18 08:30N 37°50' W 122°21'5 9.6
2017-Oct-18 08:00N 37°53' W 122°25'2 4.1
2017-Oct-18 07:30N 37°54' W 122°22'1 1.7
2017-Oct-18 07:00N 37°55' W 122°22'0 0.9
2017-Oct-18 06:30N 37°55' W 122°22'0 0.0
2017-Oct-18 06:00N 37°55' W 122°22'0 0.0
2017-Oct-18 05:30N 37°55' W 122°22'0 0.0
2017-Oct-18 05:00N 37°55' W 122°22'1 2.1
2017-Oct-18 04:30N 37°54' W 122°22'0 0.1
2017-Oct-18 04:01N 37°54' W 122°22'0 0.6
2017-Oct-18 03:31N 37°54' W 122°22'0 0.8
2017-Oct-18 03:00N 37°54' W 122°22'3 5.1
2017-Oct-18 02:30N 37°55' W 122°25'1 2.3
2017-Oct-18 02:00N 37°54' W 122°24'2 3.5
2017-Oct-18 01:30N 37°54' W 122°22'3 5.1
2017-Oct-18 01:00N 37°54' W 122°25'612.0
2017-Oct-18 00:30N 37°48' W 122°21'1 2.3
2017-Oct-18 00:00N 37°49' W 122°19'0 0.0
2017-Oct-17 23:30N 37°49' W 122°19'0 0.0
2017-Oct-17 23:00N 37°49' W 122°19'0 0.0
2017-Oct-17 22:30N 37°49' W 122°19'0 0.0
2017-Oct-17 22:00N 37°49' W 122°19'1 1.6
2017-Oct-17 21:30N 37°49' W 122°20'4 7.9
2017-Oct-17 21:00N 37°52' W 122°24'510.6
2017-Oct-17 20:30N 37°57' W 122°26'5 9.8
2017-Oct-17 20:00N 38°01' W 122°23'4 9.1
2017-Oct-17 19:30N 38°03' W 122°18'3 5.9
2017-Oct-17 19:00N 38°04' W 122°14'2 3.3
2017-Oct-17 18:23N 38°06' W 122°16'0 0.1
2017-Oct-17 17:59N 38°06' W 122°16'2 4.5
2017-Oct-17 17:30N 38°04' W 122°15'1 2.3
2017-Oct-17 17:00N 38°04' W 122°13'3 6.4
2017-Oct-17 16:30N 38°03' W 122°18'3 6.7
2017-Oct-17 16:00N 38°02' W 122°21'3 7.0
2017-Oct-17 15:30N 38°00' W 122°25'4 7.6
2017-Oct-17 15:00N 37°56' W 122°26'4 8.3
2017-Oct-17 14:30N 37°52' W 122°25'3 6.1
2017-Oct-17 14:00N 37°49' W 122°25'1 1.3
2017-Oct-17 13:30N 37°49' W 122°25'0 1.0
2017-Oct-17 13:00N 37°49' W 122°24'3 6.2
2017-Oct-17 12:30N 37°48' W 122°21'0 0.0
2017-Oct-17 12:01N 37°48' W 122°21'0 0.0
2017-Oct-17 11:30N 37°48' W 122°21'0 0.0
2017-Oct-17 11:00N 37°48' W 122°21'0 0.0
2017-Oct-17 10:30N 37°48' W 122°21'0 0.0
2017-Oct-17 10:00N 37°48' W 122°21'0 0.0
2017-Oct-17 09:30N 37°48' W 122°21'1 2.9
2017-Oct-17 09:00N 37°48' W 122°19'1 1.6
2017-Oct-17 08:30N 37°48' W 122°18'0 0.5
2017-Oct-17 08:00N 37°48' W 122°18'1 2.7
2017-Oct-17 07:31N 37°48' W 122°20'2 3.4
2017-Oct-17 07:00N 37°49' W 122°19'0 0.0
2017-Oct-17 06:30N 37°49' W 122°19'0 0.0
2017-Oct-17 06:00N 37°49' W 122°19'0 0.0
2017-Oct-17 05:30N 37°49' W 122°19'0 0.0
2017-Oct-17 05:00N 37°49' W 122°19'0 0.0
2017-Oct-17 04:30N 37°49' W 122°19'0 0.0
2017-Oct-17 04:00N 37°49' W 122°19'0 0.0
2017-Oct-17 03:30N 37°49' W 122°19'0 0.0
2017-Oct-17 03:00N 37°49' W 122°19'0 0.0
2017-Oct-17 02:30N 37°49' W 122°19'0 0.0
2017-Oct-17 02:00N 37°49' W 122°19'0 0.0
2017-Oct-17 01:30N 37°49' W 122°19'0 0.0
2017-Oct-17 01:00N 37°49' W 122°19'0 0.0
2017-Oct-17 00:30N 37°49' W 122°19'0 0.0
2017-Oct-17 00:00N 37°49' W 122°19'0 0.0
2017-Oct-16 23:30N 37°49' W 122°19'0 0.0
2017-Oct-16 23:00N 37°49' W 122°19'0 0.0
2017-Oct-16 22:30N 37°49' W 122°19'0 0.0
2017-Oct-16 22:00N 37°49' W 122°19'0 0.0
2017-Oct-16 21:30N 37°49' W 122°19'0 0.0
2017-Oct-16 21:00N 37°49' W 122°19'0 0.0
2017-Oct-16 20:30N 37°49' W 122°19'0 0.0
2017-Oct-16 20:00N 37°49' W 122°19'0 0.0
2017-Oct-16 19:30N 37°49' W 122°19'0 0.0
2017-Oct-16 19:00N 37°49' W 122°19'0 0.0
2017-Oct-16 18:30N 37°49' W 122°19'0 0.0
2017-Oct-16 18:00N 37°49' W 122°19'0 0.0
2017-Oct-16 17:30N 37°49' W 122°19'0 0.0
2017-Oct-16 17:00N 37°49' W 122°19'0 0.0
2017-Oct-16 16:30N 37°49' W 122°19'0 0.0
2017-Oct-16 16:00N 37°49' W 122°19'0 0.0
2017-Oct-16 15:30N 37°49' W 122°19'0 0.0
2017-Oct-16 15:00N 37°49' W 122°19'0 0.0
2017-Oct-16 14:00N 37°49' W 122°19'0 0.0
2017-Oct-16 13:30N 37°49' W 122°19'2 3.4
2017-Oct-16 13:00N 37°48' W 122°20'1 1.6
2017-Oct-16 12:30N 37°48' W 122°19'0 0.1
2017-Oct-16 12:00N 37°48' W 122°19'0 0.0
2017-Oct-16 11:30N 37°48' W 122°19'0 0.0
2017-Oct-16 11:00N 37°48' W 122°19'0 0.0
2017-Oct-16 10:30N 37°48' W 122°19'0 0.0
2017-Oct-16 10:00N 37°48' W 122°19'1 2.7
2017-Oct-16 09:30N 37°48' W 122°21'3 5.3
2017-Oct-16 09:00N 37°51' W 122°23'510.7
2017-Oct-16 08:30N 37°55' W 122°25'611.0
2017-Oct-16 08:00N 38°01' W 122°24'510.2
2017-Oct-16 07:30N 38°03' W 122°18'5 9.4
2017-Oct-16 06:59N 38°03' W 122°12'3 3.2
2017-Oct-16 05:59N 38°02' W 122°08'0 0.8
2017-Oct-16 05:30N 38°02' W 122°08'0 0.0
2017-Oct-16 05:00N 38°02' W 122°08'0 0.0
2017-Oct-16 04:06N 38°02' W 122°08'0 0.0
2017-Oct-16 03:37N 38°02' W 122°08'0 0.0
2017-Oct-16 03:15N 38°02' W 122°08'0 0.0
2017-Oct-16 03:00N 38°02' W 122°08'0 0.0
2017-Oct-16 02:29N 38°02' W 122°08'0 0.0
2017-Oct-16 02:00N 38°02' W 122°08'0 0.0
2017-Oct-16 01:29N 38°02' W 122°08'0 0.0
2017-Oct-15 17:08N 38°02' W 122°08'0 0.0
2017-Oct-15 16:54N 38°02' W 122°08'0 0.0
2017-Oct-15 16:29N 38°02' W 122°08'0 0.0
2017-Oct-15 16:00N 38°02' W 122°08'0 0.0
2017-Oct-15 15:30N 38°02' W 122°08'0 0.0
2017-Oct-15 15:00N 38°02' W 122°08'0 0.0
2017-Oct-15 13:59N 38°02' W 122°08'0 0.0
2017-Oct-15 13:29N 38°02' W 122°08'0 0.0
2017-Oct-15 12:57N 38°02' W 122°08'0 0.0
2017-Oct-15 12:30N 38°02' W 122°08'0 0.0
2017-Oct-15 11:59N 38°02' W 122°08'0 0.0
2017-Oct-15 11:28N 38°02' W 122°08'0 0.0
2017-Oct-15 10:59N 38°02' W 122°08'0 0.0
2017-Oct-15 10:30N 38°02' W 122°08'0 0.0
2017-Oct-15 10:00N 38°02' W 122°08'0 0.0
2017-Oct-15 09:30N 38°02' W 122°08'0 0.0
2017-Oct-15 01:43N 38°02' W 122°08'0 2.3
2017-Oct-15 01:30N 38°02' W 122°09'1 0.1
2017-Oct-14 15:22N 38°02' W 122°07'1 0.4
2017-Oct-14 14:04N 38°02' W 122°08'0 1.9
2017-Oct-14 14:00N 38°02' W 122°08'1 1.3
2017-Oct-14 13:19N 38°02' W 122°09'1 0.1
2017-Oct-14 05:44N 38°02' W 122°08'2 1.8
2017-Oct-14 04:48N 38°03' W 122°06'1 3.6
2017-Oct-14 04:26N 38°02' W 122°08'0 0.1
2017-Oct-14 02:14N 38°02' W 122°07'0 0.4
2017-Oct-14 02:00N 38°02' W 122°07'0 0.0
2017-Oct-14 01:19N 38°02' W 122°07'0 0.8
2017-Oct-14 01:00N 38°02' W 122°08'2 3.2
2017-Oct-14 00:16N 38°03' W 122°11'2 7.5
2017-Oct-14 00:00N 38°04' W 122°13'4 7.0
2017-Oct-13 23:29N 38°04' W 122°18'3 6.2
2017-Oct-13 22:59N 38°04' W 122°14'6 0.3
2017-Oct-13 01:45N 38°03' W 122°06'2 0.2
2017-Oct-12 14:15N 38°02' W 122°08'2 7.0
2017-Oct-12 13:57N 38°03' W 122°11'4 8.9
2017-Oct-12 13:30N 38°03' W 122°16'0 0.0
2017-Oct-12 12:59N 38°03' W 122°16'0 0.0
2017-Oct-12 12:30N 38°03' W 122°16'0 0.2
2017-Oct-12 12:00N 38°03' W 122°16'1 1.5
2017-Oct-12 11:30N 38°03' W 122°15'0 0.0
2017-Oct-12 11:00N 38°03' W 122°15'0 0.0
2017-Oct-12 10:30N 38°03' W 122°15'0 0.0
2017-Oct-12 10:00N 38°03' W 122°15'0 0.0
2017-Oct-12 09:30N 38°03' W 122°15'0 0.0
2017-Oct-12 09:00N 38°03' W 122°15'0 0.0
2017-Oct-12 08:30N 38°03' W 122°15'0 0.0
2017-Oct-12 08:00N 38°03' W 122°15'0 0.0
2017-Oct-12 07:30N 38°03' W 122°15'0 0.0
2017-Oct-12 07:00N 38°03' W 122°15'0 0.0
2017-Oct-12 06:30N 38°03' W 122°15'0 0.0
2017-Oct-12 06:00N 38°03' W 122°15'0 0.0
2017-Oct-12 05:30N 38°03' W 122°15'0 0.0
2017-Oct-12 05:00N 38°03' W 122°15'5 1.0
2017-Oct-11 23:42N 38°02' W 122°08'2 0.1
2017-Oct-10 23:27N 38°03' W 122°11'4 7.1
2017-Oct-10 22:55N 38°03' W 122°06'0 0.1
2017-Oct-10 21:13N 38°03' W 122°06'2 4.2
2017-Oct-10 20:49N 38°02' W 122°08'2 0.5
2017-Oct-10 16:49N 38°03' W 122°05'10 9.6
2017-Oct-10 15:49N 38°02' W 121°53'16 0.8
2017-Oct-09 20:11N 38°04' W 122°13'2 9.9
2017-Oct-09 19:59N 38°04' W 122°16'1 2.0
2017-Oct-09 19:24N 38°04' W 122°17'7 6.7
2017-Oct-09 18:19N 38°02' W 122°08'3 6.9
2017-Oct-09 17:52N 38°03' W 122°12'2 5.7
2017-Oct-09 17:30N 38°03' W 122°15'0 0.0
2017-Oct-09 16:57N 38°03' W 122°15'0 0.0
2017-Oct-09 16:30N 38°03' W 122°15'0 0.0
2017-Oct-09 16:00N 38°03' W 122°15'0 0.0
2017-Oct-09 15:30N 38°03' W 122°15'0 0.0
2017-Oct-09 15:00N 38°03' W 122°15'0 0.0
2017-Oct-09 14:30N 38°03' W 122°15'0 0.0
2017-Oct-09 14:00N 38°03' W 122°15'0 0.0
2017-Oct-09 13:30N 38°03' W 122°15'0 0.0
2017-Oct-09 13:00N 38°03' W 122°15'0 0.0
2017-Oct-09 12:29N 38°03' W 122°15'0 0.0
2017-Oct-09 11:54N 38°03' W 122°15'0 0.0
2017-Oct-09 11:30N 38°03' W 122°15'0 0.0
2017-Oct-09 11:00N 38°03' W 122°15'0 0.0
2017-Oct-09 10:28N 38°03' W 122°15'0 0.0
2017-Oct-09 10:00N 38°03' W 122°15'0 0.0
2017-Oct-09 09:30N 38°03' W 122°15'0 0.0
2017-Oct-09 09:00N 38°03' W 122°15'0 0.0
2017-Oct-09 08:30N 38°03' W 122°15'0 0.0
2017-Oct-09 08:00N 38°03' W 122°15'0 0.0
2017-Oct-09 07:29N 38°03' W 122°15'0 0.0
2017-Oct-09 07:00N 38°03' W 122°15'0 0.0
2017-Oct-09 05:59N 38°03' W 122°15'0 0.0
2017-Oct-09 05:24N 38°03' W 122°15'0 0.0
2017-Oct-09 04:59N 38°03' W 122°15'0 0.0
2017-Oct-09 04:29N 38°03' W 122°15'0 0.0
2017-Oct-09 04:00N 38°03' W 122°15'0 0.0
2017-Oct-09 03:29N 38°03' W 122°15'0 0.0
2017-Oct-09 02:59N 38°03' W 122°15'0 0.0
2017-Oct-09 02:29N 38°03' W 122°15'0 0.0
2017-Oct-09 02:00N 38°03' W 122°15'1 1.3
2017-Oct-09 01:30N 38°04' W 122°14'0 0.3
2017-Oct-09 01:00N 38°04' W 122°14'3 4.9
2017-Oct-09 00:29N 38°03' W 122°17'4 6.2
2017-Oct-08 23:54N 38°02' W 122°21'4 9.8
2017-Oct-08 23:30N 37°59' W 122°25'5 9.5
2017-Oct-08 23:00N 37°55' W 122°25'510.6
2017-Oct-08 22:30N 37°50' W 122°22'3 5.9
2017-Oct-08 22:00N 37°49' W 122°19'0 0.0
2017-Oct-08 21:30N 37°49' W 122°19'0 0.0
2017-Oct-08 21:00N 37°49' W 122°19'0 0.0
2017-Oct-08 20:30N 37°49' W 122°19'0 0.0
2017-Oct-08 20:00N 37°49' W 122°19'0 0.0
2017-Oct-08 19:30N 37°49' W 122°19'0 0.0
2017-Oct-08 19:00N 37°49' W 122°19'0 0.0
2017-Oct-08 18:30N 37°49' W 122°19'0 0.0
2017-Oct-08 18:00N 37°49' W 122°19'  

Dump ship's entire track history